Time;durP1;ratioP1;P1;durP2;ratioP2;P2;SDS_P1;SDS_P2;PMS_P1;PMS_P2;Temp;Humidity;BMP_temperature;BMP_pressure;BME280_temperature;BME280_humidity;BME280_pressure;Samples;Min_cycle;Max_cycle;Signal;HPM_P1;HPM_P2
2023/06/16 00:01:16;;;;;;;10.25;6.95;;;16.20;99.90;;;;;;5049799;28;20041;-71
2023/06/16 00:03:43;;;;;;;7.88;6.85;;;16.30;99.90;;;;;;5049514;28;20047;-72
2023/06/16 00:06:13;;;;;;;9.40;6.55;;;16.30;99.90;;;;;;5050724;28;20117;-72
2023/06/16 00:08:45;;;;;;;10.45;7.78;;;16.40;99.90;;;;;;5049712;28;20037;-72
2023/06/16 00:11:15;;;;;;;8.57;7.57;;;16.30;99.90;;;;;;5049975;28;20130;-72
2023/06/16 00:13:43;;;;;;;11.55;8.63;;;16.30;99.90;;;;;;5049767;28;20021;-72
2023/06/16 00:16:09;;;;;;;8.52;7.47;;;16.20;99.90;;;;;;5049452;28;20120;-72
2023/06/16 00:18:36;;;;;;;11.43;9.10;;;16.10;99.90;;;;;;5049221;28;20029;-72
2023/06/16 00:21:02;;;;;;;15.15;10.52;;;16.10;99.90;;;;;;5049696;28;20035;-72
2023/06/16 00:23:29;;;;;;;16.67;11.00;;;16.10;99.90;;;;;;5047781;28;20071;-72
2023/06/16 00:25:56;;;;;;;16.13;11.63;;;16.00;99.90;;;;;;5049106;28;20033;-71
2023/06/16 00:28:22;;;;;;;11.88;9.35;;;15.90;99.90;;;;;;5049564;28;20132;-72
2023/06/16 00:30:47;;;;;;;13.60;10.23;;;15.90;99.90;;;;;;5048614;28;20116;-72
2023/06/16 00:33:15;;;;;;;14.23;8.63;;;15.80;99.90;;;;;;5049425;28;20037;-72
2023/06/16 00:35:43;;;;;;;11.18;8.32;;;15.70;99.90;;;;;;5051483;28;20437;-72
2023/06/16 00:38:09;;;;;;;11.57;8.43;;;15.70;99.90;;;;;;5052586;28;20029;-72
2023/06/16 00:40:34;;;;;;;11.00;8.35;;;15.70;99.90;;;;;;5052767;28;20043;-72
2023/06/16 00:43:02;;;;;;;12.95;8.07;;;15.60;99.90;;;;;;5052684;28;20086;-72
2023/06/16 00:45:31;;;;;;;15.35;10.50;;;15.60;99.90;;;;;;5052527;28;20028;-73
2023/06/16 00:47:58;;;;;;;17.83;11.65;;;15.60;99.90;;;;;;5052658;28;20047;-72
2023/06/16 00:50:24;;;;;;;15.25;11.50;;;15.60;99.90;;;;;;5051316;28;20036;-72
2023/06/16 00:52:50;;;;;;;16.02;10.65;;;15.50;99.90;;;;;;5052575;28;20040;-72
2023/06/16 00:55:19;;;;;;;16.20;11.05;;;15.50;99.90;;;;;;5052815;28;20093;-72
2023/06/16 00:57:45;;;;;;;14.70;10.70;;;15.50;99.90;;;;;;5052264;28;20037;-72
2023/06/16 01:00:11;;;;;;;12.95;10.52;;;15.40;99.90;;;;;;5052684;28;20029;-72
2023/06/16 01:02:38;;;;;;;11.88;10.63;;;15.40;99.90;;;;;;5052183;28;20035;-72
2023/06/16 01:05:07;;;;;;;19.42;11.98;;;15.40;99.90;;;;;;5051298;28;20029;-72
2023/06/16 01:07:59;;;;;;;16.63;13.75;;;15.50;99.90;;;;;;5051721;28;20187;-73
2023/06/16 01:10:52;;;;;;;20.27;16.13;;;15.40;99.90;;;;;;5052500;28;20040;-72
2023/06/16 01:13:52;;;;;;;18.27;14.77;;;15.40;99.90;;;;;;5052687;28;20332;-71
2023/06/16 01:16:25;;;;;;;17.85;13.50;;;15.40;99.90;;;;;;5052448;28;20439;-72
2023/06/16 01:18:52;;;;;;;15.43;11.75;;;15.40;99.90;;;;;;5052069;28;20029;-72
2023/06/16 01:21:31;;;;;;;17.67;12.65;;;15.40;99.90;;;;;;5052276;28;20017;-72
2023/06/16 01:24:07;;;;;;;17.50;13.43;;;15.30;99.90;;;;;;5052338;28;20512;-72
2023/06/16 01:26:40;;;;;;;17.52;13.60;;;15.30;99.90;;;;;;5051620;28;20187;-72
2023/06/16 01:29:10;;;;;;;20.17;16.67;;;15.30;99.90;;;;;;5052436;28;20374;-72
2023/06/16 01:31:38;;;;;;;19.70;14.43;;;15.30;99.90;;;;;;5051966;28;20036;-72
2023/06/16 01:34:05;;;;;;;16.15;12.13;;;15.20;99.90;;;;;;5052007;28;20044;-72
2023/06/16 01:36:32;;;;;;;15.55;12.70;;;15.10;99.90;;;;;;5051715;28;20473;-72
2023/06/16 01:39:01;;;;;;;18.27;12.55;;;15.00;99.90;;;;;;5052195;28;20497;-72
2023/06/16 01:41:28;;;;;;;16.13;12.05;;;14.90;99.90;;;;;;5052323;28;20025;-72
2023/06/16 01:43:56;;;;;;;15.45;12.02;;;14.90;99.90;;;;;;5051645;28;20033;-72
2023/06/16 01:46:23;;;;;;;18.67;13.00;;;14.90;99.90;;;;;;5051770;28;20025;-72
2023/06/16 01:48:49;;;;;;;18.83;14.85;;;14.80;99.90;;;;;;5051165;28;20175;-72
2023/06/16 01:51:15;;;;;;;20.42;14.73;;;14.80;99.90;;;;;;5051985;28;20068;-72
2023/06/16 01:53:41;;;;;;;21.65;16.27;;;14.80;99.90;;;;;;5051388;28;20061;-72
2023/06/16 01:56:10;;;;;;;18.90;14.43;;;14.80;99.90;;;;;;5051796;28;20083;-72
2023/06/16 01:58:36;;;;;;;21.00;15.10;;;14.90;99.90;;;;;;5051314;28;20021;-72
2023/06/16 02:01:10;;;;;;;17.35;14.15;;;14.90;99.90;;;;;;5051895;28;20029;-72
2023/06/16 02:04:09;;;;;;;15.70;12.90;;;14.90;99.90;;;;;;5051095;28;20044;-72
2023/06/16 02:07:04;;;;;;;16.58;13.73;;;14.90;99.90;;;;;;5050891;28;20021;-72
2023/06/16 02:09:32;;;;;;;18.60;15.27;;;14.90;99.90;;;;;;5051223;28;20039;-74
2023/06/16 02:11:59;;;;;;;19.80;16.10;;;14.90;99.90;;;;;;5051541;28;20358;-72
2023/06/16 02:14:27;;;;;;;19.17;15.18;;;14.90;99.90;;;;;;5051406;28;20037;-72
2023/06/16 02:16:53;;;;;;;20.15;15.18;;;14.90;99.90;;;;;;5051096;28;20025;-72
2023/06/16 02:19:18;;;;;;;23.92;19.95;;;14.90;99.90;;;;;;5051435;28;20033;-71
2023/06/16 02:21:44;;;;;;;24.30;18.55;;;15.00;99.90;;;;;;5051444;28;20086;-72
2023/06/16 02:24:10;;;;;;;28.25;21.52;;;15.00;99.90;;;;;;5051518;28;20438;-72
2023/06/16 02:26:39;;;;;;;25.58;21.05;;;15.00;99.90;;;;;;5051163;28;20049;-72
2023/06/16 02:29:05;;;;;;;26.38;20.63;;;15.10;99.90;;;;;;5051536;28;20441;-72
2023/06/16 02:31:31;;;;;;;25.58;18.17;;;15.10;99.90;;;;;;5051309;28;20048;-74
2023/06/16 02:33:57;;;;;;;23.63;18.90;;;15.00;99.90;;;;;;5049477;28;20206;-72
2023/06/16 02:36:23;;;;;;;27.85;20.75;;;15.00;99.90;;;;;;5051296;28;20025;-72
2023/06/16 02:38:49;;;;;;;26.60;21.17;;;15.10;99.90;;;;;;5050452;28;20028;-72
2023/06/16 02:41:15;;;;;;;26.65;21.70;;;15.10;99.90;;;;;;5051502;28;20025;-72
2023/06/16 02:43:41;;;;;;;23.15;20.65;;;15.10;99.90;;;;;;5049368;28;20450;-72
2023/06/16 02:46:07;;;;;;;26.15;19.58;;;15.10;99.90;;;;;;5051608;28;20078;-71
2023/06/16 02:48:34;;;;;;;26.38;19.38;;;15.10;99.90;;;;;;5050588;28;20454;-74
2023/06/16 02:50:59;;;;;;;22.52;18.85;;;15.00;99.90;;;;;;5051139;28;20041;-72
2023/06/16 02:53:25;;;;;;;20.05;17.60;;;15.00;99.90;;;;;;5051379;28;20044;-72
2023/06/16 02:55:51;;;;;;;25.25;19.13;;;15.00;99.90;;;;;;5050721;28;20024;-72
2023/06/16 02:58:18;;;;;;;20.60;17.17;;;14.90;99.90;;;;;;5050151;28;20362;-72
2023/06/16 03:00:44;;;;;;;21.58;18.45;;;14.90;99.90;;;;;;5050422;28;20100;-72
2023/06/16 03:03:09;;;;;;;22.38;17.98;;;14.80;99.90;;;;;;5049321;28;20032;-72
2023/06/16 03:05:36;;;;;;;21.15;16.88;;;14.80;99.90;;;;;;5050078;28;20060;-74
2023/06/16 03:08:02;;;;;;;21.67;17.15;;;14.80;99.90;;;;;;5032833;28;20094;-72
2023/06/16 03:10:28;;;;;;;18.38;15.43;;;14.70;99.90;;;;;;5050866;28;20116;-72
2023/06/16 03:12:53;;;;;;;21.17;16.50;;;14.70;99.90;;;;;;5048977;28;20025;-72
2023/06/16 03:15:23;;;;;;;19.02;16.27;;;14.70;99.90;;;;;;5050378;28;20040;-72
2023/06/16 03:17:49;;;;;;;20.23;15.55;;;14.70;99.90;;;;;;5050208;28;20055;-71
2023/06/16 03:20:15;;;;;;;21.67;17.10;;;14.70;99.90;;;;;;5050264;28;20025;-71
2023/06/16 03:22:41;;;;;;;17.48;14.90;;;14.70;99.90;;;;;;5050194;28;20420;-72
2023/06/16 03:25:07;;;;;;;21.95;15.93;;;14.60;99.90;;;;;;5050533;28;20044;-72
2023/06/16 03:27:32;;;;;;;19.85;16.42;;;14.70;99.90;;;;;;5050237;28;20064;-72
2023/06/16 03:29:58;;;;;;;21.92;18.00;;;14.70;99.90;;;;;;5049751;28;20025;-72
2023/06/16 03:32:25;;;;;;;21.67;18.05;;;14.70;99.90;;;;;;5050583;28;20029;-72
2023/06/16 03:34:50;;;;;;;21.88;17.60;;;14.70;99.90;;;;;;5050227;28;20025;-72
2023/06/16 03:37:16;;;;;;;18.20;15.70;;;14.60;99.90;;;;;;5050969;28;20032;-72
2023/06/16 03:39:42;;;;;;;21.17;15.95;;;14.60;99.90;;;;;;5048505;28;20431;-72
2023/06/16 03:42:08;;;;;;;21.02;17.70;;;14.50;99.90;;;;;;5050733;28;20025;-72
2023/06/16 03:44:34;;;;;;;24.98;18.95;;;14.60;99.90;;;;;;5050531;28;20029;-72
2023/06/16 03:47:00;;;;;;;18.05;16.10;;;14.50;99.90;;;;;;5049393;28;20114;-72
2023/06/16 03:49:26;;;;;;;21.90;18.90;;;14.60;99.90;;;;;;5050522;28;20037;-72
2023/06/16 03:51:52;;;;;;;23.45;16.42;;;14.50;99.90;;;;;;5049616;28;20521;-72
2023/06/16 03:54:19;;;;;;;22.50;17.27;;;14.40;99.90;;;;;;5050144;28;20033;-72
2023/06/16 03:56:45;;;;;;;18.63;15.63;;;14.40;99.90;;;;;;5049959;28;20017;-72
2023/06/16 03:59:11;;;;;;;19.85;16.58;;;14.30;99.90;;;;;;5050066;28;20539;-71
2023/06/16 04:01:38;;;;;;;21.70;16.98;;;14.30;99.90;;;;;;5049902;28;20030;-74
2023/06/16 04:04:05;;;;;;;18.17;16.23;;;14.20;99.90;;;;;;5049834;28;20119;-72
2023/06/16 04:06:34;;;;;;;20.20;16.35;;;14.10;99.90;;;;;;5050380;28;20069;-72
2023/06/16 04:09:01;;;;;;;20.95;17.33;;;14.00;99.90;;;;;;5049798;28;20327;-72
2023/06/16 04:11:27;;;;;;;19.38;15.02;;;14.00;99.90;;;;;;5054618;28;20032;-72
2023/06/16 04:13:53;;;;;;;21.88;16.00;;;14.10;99.90;;;;;;5053919;28;20025;-72
2023/06/16 04:16:19;;;;;;;19.17;14.95;;;14.10;99.90;;;;;;5054243;28;20082;-71
2023/06/16 04:18:48;;;;;;;20.30;16.05;;;14.20;99.90;;;;;;5052125;28;20033;-72
2023/06/16 04:21:15;;;;;;;17.20;14.75;;;14.20;99.90;;;;;;5054010;28;20032;-72
2023/06/16 04:23:41;;;;;;;21.27;16.52;;;14.20;99.90;;;;;;5053169;28;20099;-73
2023/06/16 04:26:08;;;;;;;18.85;14.93;;;14.20;99.90;;;;;;5053496;28;20032;-71
2023/06/16 04:28:38;;;;;;;20.27;16.25;;;14.20;99.90;;;;;;5053734;28;20029;-71
2023/06/16 04:31:05;;;;;;;17.75;15.30;;;14.20;99.90;;;;;;5053174;28;20204;-71
2023/06/16 04:33:31;;;;;;;18.10;15.30;;;14.20;99.90;;;;;;5053355;28;20482;-71
2023/06/16 04:35:56;;;;;;;16.70;14.07;;;14.30;99.90;;;;;;5052925;28;20029;-72
2023/06/16 04:38:23;;;;;;;17.42;14.35;;;14.30;99.90;;;;;;5053621;28;20112;-71
2023/06/16 04:40:49;;;;;;;21.30;16.00;;;14.40;99.90;;;;;;5053028;28;20032;-72
2023/06/16 04:43:15;;;;;;;17.90;15.00;;;14.40;99.90;;;;;;5053190;28;20029;-71
2023/06/16 04:45:41;;;;;;;22.35;16.75;;;14.40;99.90;;;;;;5052722;28;20029;-74
2023/06/16 04:48:06;;;;;;;17.58;15.55;;;14.40;99.90;;;;;;5052911;28;20029;-72
2023/06/16 04:50:32;;;;;;;17.80;14.55;;;14.50;99.90;;;;;;5053060;28;20443;-71
2023/06/16 04:52:58;;;;;;;19.13;15.45;;;14.60;99.90;;;;;;5052303;28;20079;-72
2023/06/16 04:55:25;;;;;;;19.33;15.07;;;14.60;99.90;;;;;;5034998;28;20029;-72
2023/06/16 04:57:51;;;;;;;15.88;13.68;;;14.60;99.90;;;;;;5052405;28;20029;-72
2023/06/16 05:00:17;;;;;;;17.45;14.63;;;14.70;99.90;;;;;;5052941;28;20359;-71
2023/06/16 05:02:43;;;;;;;20.13;15.95;;;14.90;99.90;;;;;;5052254;28;20032;-73
2023/06/16 05:05:09;;;;;;;17.85;14.48;;;15.10;99.90;;;;;;5052678;28;20025;-72
2023/06/16 05:07:36;;;;;;;17.17;14.75;;;15.20;99.90;;;;;;5052525;28;20075;-71
2023/06/16 05:10:02;;;;;;;17.45;15.60;;;15.40;99.90;;;;;;5051666;28;20048;-72
2023/06/16 05:12:28;;;;;;;22.58;16.88;;;15.50;99.90;;;;;;5053131;28;20474;-72
2023/06/16 05:14:54;;;;;;;17.70;15.77;;;15.60;99.90;;;;;;5052035;28;20112;-72
2023/06/16 05:17:21;;;;;;;20.33;16.73;;;15.70;99.90;;;;;;5052583;28;20358;-72
2023/06/16 05:19:46;;;;;;;23.00;17.30;;;15.80;99.90;;;;;;5051715;28;20036;-72
2023/06/16 05:22:13;;;;;;;20.73;17.15;;;16.00;99.90;;;;;;5052181;28;20025;-72
2023/06/16 05:24:39;;;;;;;20.60;17.67;;;16.10;99.90;;;;;;5052253;28;20025;-72
2023/06/16 05:27:05;;;;;;;21.17;17.95;;;16.30;99.90;;;;;;5051592;28;20508;-72
2023/06/16 05:29:30;;;;;;;21.73;17.80;;;16.40;99.90;;;;;;5052484;28;20052;-72
2023/06/16 05:31:56;;;;;;;23.85;18.23;;;16.40;99.90;;;;;;5051826;28;20022;-72
2023/06/16 05:34:22;;;;;;;24.75;17.90;;;16.40;99.90;;;;;;5052307;28;20397;-72
2023/06/16 05:36:47;;;;;;;22.10;17.30;;;16.40;99.90;;;;;;5051870;28;20126;-73
2023/06/16 05:39:13;;;;;;;23.63;17.75;;;16.40;99.90;;;;;;5052134;28;20560;-72
2023/06/16 05:41:39;;;;;;;22.67;18.05;;;16.40;99.90;;;;;;5052008;28;20104;-73
2023/06/16 05:44:07;;;;;;;20.65;18.00;;;16.40;99.90;;;;;;5051682;28;20025;-72
2023/06/16 05:46:32;;;;;;;20.17;16.00;;;16.30;99.90;;;;;;5051937;28;20033;-72
2023/06/16 05:48:58;;;;;;;19.42;16.02;;;16.30;99.90;;;;;;5051329;28;20462;-72
2023/06/16 05:51:24;;;;;;;22.05;16.15;;;16.30;99.90;;;;;;5051887;28;20044;-71
2023/06/16 05:53:50;;;;;;;28.45;17.95;;;16.30;99.90;;;;;;5051341;28;20103;-72
2023/06/16 05:56:16;;;;;;;20.75;17.23;;;16.30;99.90;;;;;;5051971;28;20569;-72
2023/06/16 05:58:42;;;;;;;22.17;17.30;;;16.30;99.90;;;;;;5052027;28;20062;-72
2023/06/16 06:01:13;;;;;;;25.85;17.85;;;16.20;99.90;;;;;;5051111;28;20028;-72
2023/06/16 06:03:45;;;;;;;19.80;16.70;;;16.10;99.90;;;;;;5051602;28;20048;-72
2023/06/16 06:06:12;;;;;;;23.75;16.67;;;16.10;99.90;;;;;;5051516;28;20040;-72
2023/06/16 06:08:38;;;;;;;20.77;16.42;;;16.20;99.90;;;;;;5051486;28;20083;-72
2023/06/16 06:11:06;;;;;;;21.77;17.73;;;16.20;99.90;;;;;;5050663;28;20032;-72
2023/06/16 06:13:32;;;;;;;22.40;17.38;;;16.20;99.90;;;;;;5051806;28;20033;-71
2023/06/16 06:15:58;;;;;;;25.30;18.77;;;16.10;99.90;;;;;;5050678;28;20335;-71
2023/06/16 06:18:24;;;;;;;26.48;19.92;;;16.00;99.90;;;;;;5050306;28;20079;-71
2023/06/16 06:20:50;;;;;;;28.40;20.67;;;16.00;99.90;;;;;;5050791;28;20063;-72
2023/06/16 06:23:16;;;;;;;24.55;18.83;;;16.00;99.90;;;;;;5051021;28;20124;-72
2023/06/16 06:25:42;;;;;;;25.58;20.63;;;16.00;99.90;;;;;;5050035;28;20094;-71
2023/06/16 06:28:08;;;;;;;24.42;18.92;;;16.00;99.90;;;;;;5050787;28;20110;-72
2023/06/16 06:30:35;;;;;;;23.75;18.13;;;16.10;99.90;;;;;;5050994;28;20120;-72
2023/06/16 06:33:01;;;;;;;18.02;16.00;;;16.20;99.90;;;;;;5049723;28;20118;-72
2023/06/16 06:35:27;;;;;;;22.90;18.70;;;16.30;99.90;;;;;;5050947;28;20454;-72
2023/06/16 06:37:52;;;;;;;22.25;18.50;;;16.40;99.90;;;;;;5050330;28;20029;-72
2023/06/16 06:40:18;;;;;;;18.63;16.35;;;16.40;99.90;;;;;;5051066;28;20036;-72
2023/06/16 06:42:44;;;;;;;25.88;17.58;;;16.50;99.90;;;;;;5050715;28;20028;-72
2023/06/16 06:45:13;;;;;;;18.70;16.02;;;16.60;99.90;;;;;;5050410;28;20391;-72
2023/06/16 06:47:39;;;;;;;23.88;19.25;;;16.70;99.90;;;;;;5050634;28;20458;-72
2023/06/16 06:50:05;;;;;;;26.10;18.35;;;16.80;99.90;;;;;;5050323;28;20032;-71
2023/06/16 06:52:31;;;;;;;22.65;18.90;;;16.90;99.90;;;;;;5050816;28;20029;-71
2023/06/16 06:54:56;;;;;;;22.35;17.60;;;16.90;99.90;;;;;;5050508;28;20021;-72
2023/06/16 06:57:23;;;;;;;21.90;18.85;;;17.10;99.90;;;;;;5050542;28;20462;-71
2023/06/16 06:59:49;;;;;;;20.77;17.35;;;17.20;99.90;;;;;;5050551;28;20447;-73
2023/06/16 07:02:16;;;;;;;19.23;16.67;;;17.40;99.90;;;;;;5049448;28;20029;-72
2023/06/16 07:04:42;;;;;;;19.20;16.40;;;17.50;99.90;;;;;;5050607;28;20049;-71
2023/06/16 07:07:08;;;;;;;17.85;14.57;;;17.70;99.90;;;;;;5050000;28;20406;-72
2023/06/16 07:09:34;;;;;;;19.27;15.75;;;17.80;99.90;;;;;;5050435;28;20033;-71
2023/06/16 07:12:01;;;;;;;23.65;18.15;;;17.90;99.90;;;;;;5049920;28;20032;-72
2023/06/16 07:14:27;;;;;;;20.63;17.95;;;18.00;99.90;;;;;;5050562;28;20135;-72
2023/06/16 07:16:52;;;;;;;21.92;17.73;;;18.00;99.90;;;;;;5049712;28;20047;-72
2023/06/16 07:19:18;;;;;;;19.90;17.75;;;18.10;99.90;;;;;;5050690;28;20025;-72
2023/06/16 07:21:44;;;;;;;17.38;14.98;;;18.20;99.90;;;;;;5050378;28;20029;-72
2023/06/16 07:24:10;;;;;;;20.27;18.13;;;18.30;99.90;;;;;;5049367;28;20029;-73
2023/06/16 07:26:37;;;;;;;24.00;17.77;;;18.30;99.90;;;;;;5049816;28;20430;-73
2023/06/16 07:29:03;;;;;;;18.13;16.02;;;18.30;99.90;;;;;;5049534;28;20037;-73
2023/06/16 07:31:28;;;;;;;20.02;16.30;;;18.40;99.90;;;;;;5050476;28;20444;-71
2023/06/16 07:33:55;;;;;;;21.30;15.27;;;18.50;99.90;;;;;;5049677;28;20036;-73
2023/06/16 07:36:21;;;;;;;23.08;18.08;;;18.50;99.90;;;;;;5050502;28;20029;-71
2023/06/16 07:38:46;;;;;;;21.30;16.75;;;18.50;99.90;;;;;;5050238;28;20458;-71
2023/06/16 07:41:12;;;;;;;18.73;16.02;;;18.50;99.90;;;;;;5048114;28;20037;-71
2023/06/16 07:43:38;;;;;;;17.55;13.32;;;18.60;99.90;;;;;;5051638;28;20025;-70
2023/06/16 07:46:04;;;;;;;23.80;15.75;;;18.70;99.90;;;;;;5053624;28;20024;-72
2023/06/16 07:48:30;;;;;;;20.63;16.95;;;18.80;99.90;;;;;;5054046;28;20385;-71
2023/06/16 07:50:56;;;;;;;20.13;17.35;;;18.70;99.90;;;;;;5053458;28;20354;-72
2023/06/16 07:53:22;;;;;;;23.13;16.40;;;18.80;99.90;;;;;;5054007;28;20055;-72
2023/06/16 07:55:47;;;;;;;17.02;15.30;;;19.00;99.90;;;;;;5054096;28;20029;-72
2023/06/16 07:58:13;;;;;;;19.30;15.90;;;19.10;99.90;;;;;;5053447;28;20179;-72
2023/06/16 08:00:39;;;;;;;27.23;19.67;;;19.30;99.90;;;;;;5054189;28;20021;-72
2023/06/16 08:03:05;;;;;;;20.45;16.98;;;19.30;99.90;;;;;;5053389;28;20021;-72
2023/06/16 08:05:30;;;;;;;21.10;15.20;;;19.30;99.90;;;;;;5054249;28;20056;-71
2023/06/16 08:07:56;;;;;;;18.35;15.80;;;19.30;99.90;;;;;;5053029;28;20033;-72
2023/06/16 08:10:23;;;;;;;17.23;14.55;;;19.30;99.90;;;;;;5052446;28;20513;-71
2023/06/16 08:12:49;;;;;;;22.10;15.75;;;19.30;99.90;;;;;;5053966;28;20029;-72
2023/06/16 08:15:16;;;;;;;15.02;13.40;;;19.40;99.90;;;;;;5053514;28;20524;-72
2023/06/16 08:17:42;;;;;;;15.20;13.43;;;19.50;99.90;;;;;;5053715;28;20104;-72
2023/06/16 08:20:09;;;;;;;14.25;12.43;;;19.50;99.90;;;;;;5053522;28;20033;-72
2023/06/16 08:22:35;;;;;;;16.83;12.50;;;19.50;99.90;;;;;;5054008;28;20028;-72
2023/06/16 08:25:02;;;;;;;14.35;11.85;;;19.50;99.90;;;;;;5053717;28;20025;-72
2023/06/16 08:27:27;;;;;;;13.70;12.13;;;19.50;99.90;;;;;;5053656;28;20122;-71
2023/06/16 08:29:53;;;;;;;12.68;10.40;;;19.40;99.90;;;;;;5053969;28;20062;-71
2023/06/16 08:32:19;;;;;;;17.15;11.27;;;19.60;99.90;;;;;;5053075;28;20052;-72
2023/06/16 08:34:45;;;;;;;11.38;10.05;;;19.70;99.90;;;;;;5051741;28;20021;-72
2023/06/16 08:37:11;;;;;;;12.55;8.95;;;19.80;99.90;;;;;;5051271;28;20076;-72
2023/06/16 08:39:37;;;;;;;18.60;9.60;;;19.90;99.90;;;;;;5052820;28;20131;-72
2023/06/16 08:42:03;;;;;;;10.15;8.82;;;20.00;99.90;;;;;;5052789;28;20111;-72
2023/06/16 08:44:32;;;;;;;12.10;8.02;;;20.00;99.90;;;;;;5052798;28;20098;-71
2023/06/16 08:46:58;;;;;;;11.38;8.85;;;20.10;99.90;;;;;;5052451;28;20065;-72
2023/06/16 08:49:25;;;;;;;14.68;8.82;;;20.10;99.90;;;;;;5052707;28;20068;-71
2023/06/16 08:51:55;;;;;;;10.93;8.60;;;20.10;99.90;;;;;;5052883;28;20024;-71
2023/06/16 08:54:25;;;;;;;12.82;8.48;;;20.10;99.90;;;;;;5051950;28;20028;-71
2023/06/16 08:56:51;;;;;;;15.23;7.47;;;20.30;99.90;;;;;;5051929;28;20064;-72
2023/06/16 08:59:19;;;;;;;9.30;7.90;;;20.50;99.90;;;;;;5052007;28;20123;-71
2023/06/16 09:01:46;;;;;;;13.90;8.50;;;20.60;99.90;;;;;;5052834;28;20025;-72
2023/06/16 09:04:13;;;;;;;9.25;7.05;;;20.80;99.90;;;;;;5052058;28;20087;-72
2023/06/16 09:06:47;;;;;;;11.70;8.20;;;20.80;99.90;;;;;;5051491;28;20060;-72
2023/06/16 09:09:14;;;;;;;9.70;6.88;;;20.90;99.90;;;;;;5034178;28;20124;-72
2023/06/16 09:11:41;;;;;;;9.85;7.68;;;21.00;99.90;;;;;;5052782;28;20029;-72
2023/06/16 09:14:14;;;;;;;7.07;6.38;;;21.00;99.90;;;;;;5051623;28;20044;-72
2023/06/16 09:16:41;;;;;;;8.55;7.32;;;21.20;99.90;;;;;;5052718;28;20029;-72
2023/06/16 09:19:08;;;;;;;8.02;6.38;;;21.40;99.90;;;;;;5051825;28;20508;-72
2023/06/16 09:21:34;;;;;;;9.20;6.30;;;21.50;99.90;;;;;;5051829;28;20443;-72
2023/06/16 09:24:01;;;;;;;7.30;6.07;;;21.70;99.90;;;;;;5051841;28;20025;-74
2023/06/16 09:26:35;;;;;;;9.13;6.70;;;21.70;99.90;;;;;;5051996;28;20040;-73
2023/06/16 09:29:02;;;;;;;8.10;6.78;;;21.80;99.90;;;;;;5051469;28;20058;-73
2023/06/16 09:31:28;;;;;;;9.40;6.50;;;21.70;99.90;;;;;;5050712;28;20037;-72
2023/06/16 09:34:05;;;;;;;6.32;5.18;;;21.50;99.90;;;;;;5051984;28;20068;-72
2023/06/16 09:36:31;;;;;;;10.15;6.75;;;21.50;99.90;;;;;;5052162;28;20025;-72
2023/06/16 09:38:57;;;;;;;12.15;6.22;;;21.50;99.90;;;;;;5051472;28;20348;-73
2023/06/16 09:41:23;;;;;;;10.52;6.75;;;21.30;99.90;;;;;;5051116;28;20043;-72
2023/06/16 09:43:50;;;;;;;5.90;5.30;;;21.40;99.90;;;;;;5051001;28;20067;-72
2023/06/16 09:46:16;;;;;;;9.05;6.30;;;21.50;99.90;;;;;;5050525;28;20021;-73
2023/06/16 09:48:49;;;;;;;7.45;6.35;;;21.50;99.90;;;;;;5051339;28;20032;-73
2023/06/16 09:51:23;;;;;;;10.98;5.78;;;21.60;99.90;;;;;;5050422;28;20123;-73
2023/06/16 09:53:49;;;;;;;7.80;5.68;;;21.70;99.90;;;;;;5051045;28;20108;-73
2023/06/16 09:56:16;;;;;;;6.60;5.82;;;21.80;99.90;;;;;;5050457;28;20083;-73
2023/06/16 09:58:42;;;;;;;8.90;5.82;;;21.80;99.90;;;;;;5050815;28;20061;-73
2023/06/16 10:01:15;;;;;;;9.32;6.05;;;21.90;99.90;;;;;;5050412;28;20407;-73
2023/06/16 10:03:43;;;;;;;7.60;5.55;;;21.90;99.90;;;;;;5050621;28;20029;-72
2023/06/16 10:06:25;;;;;;;9.18;5.80;;;21.90;99.90;;;;;;5049758;28;20108;-73
2023/06/16 10:08:54;;;;;;;7.47;5.70;;;21.90;99.90;;;;;;5050045;28;20118;-73
2023/06/16 10:11:21;;;;;;;10.70;5.70;;;22.00;99.90;;;;;;5050631;28;20390;-73
2023/06/16 10:13:58;;;;;;;8.18;5.82;;;22.00;99.90;;;;;;5050168;28;20489;-73
2023/06/16 10:16:28;;;;;;;9.15;5.65;;;22.00;99.90;;;;;;5049865;28;20059;-73
2023/06/16 10:18:58;;;;;;;11.13;5.63;;;21.90;99.90;;;;;;5048822;28;20036;-73
2023/06/16 10:21:24;;;;;;;10.77;5.97;;;22.00;99.90;;;;;;5049369;28;20029;-74
2023/06/16 10:23:51;;;;;;;7.38;5.47;;;22.00;99.90;;;;;;5049973;28;20072;-73
2023/06/16 10:26:18;;;;;;;8.40;5.97;;;22.10;99.90;;;;;;5049319;28;20045;-73
2023/06/16 10:28:45;;;;;;;7.72;5.85;;;22.10;99.90;;;;;;5049922;28;20202;-73
2023/06/16 10:31:12;;;;;;;11.07;5.40;;;22.30;99.90;;;;;;5050279;28;20090;-73
2023/06/16 10:33:58;;;;;;;8.40;6.25;;;22.40;99.90;;;;;;5050437;28;20060;-73
2023/06/16 10:36:29;;;;;;;9.82;5.55;;;22.60;99.90;;;;;;5049928;28;20033;-73
2023/06/16 10:39:01;;;;;;;10.07;5.85;;;22.70;99.90;;;;;;5049945;28;20032;-73
2023/06/16 10:41:31;;;;;;;8.20;6.05;;;22.80;99.90;;;;;;5049153;28;20466;-73
2023/06/16 10:44:29;;;;;;;6.72;5.75;;;22.70;99.90;;;;;;5049479;28;20033;-73
2023/06/16 10:47:10;;;;;;;8.38;5.55;;;22.70;99.90;;;;;;5049382;28;20484;-73
2023/06/16 10:49:50;;;;;;;10.48;5.78;;;22.70;99.90;;;;;;5049693;28;20104;-74
2023/06/16 10:52:45;;;;;;;6.80;5.20;;;22.70;99.90;;;;;;5049350;28;20025;-73
2023/06/16 10:55:31;;;;;;;11.65;5.82;;;22.70;99.90;;;;;;5047630;28;20100;-73
2023/06/16 10:58:20;;;;;;;12.15;6.30;;;22.60;99.90;;;;;;5049902;28;20059;-72
2023/06/16 11:01:01;;;;;;;11.30;6.15;;;22.40;99.90;;;;;;5042575;28;20086;-72
2023/06/16 11:03:43;;;;;;;8.68;5.60;;;22.30;99.90;;;;;;5049713;28;20021;-72
2023/06/16 11:06:09;;;;;;;12.13;5.60;;;22.20;99.90;;;;;;5047914;28;20021;-73
2023/06/16 11:09:07;;;;;;;13.63;5.25;;;22.10;99.90;;;;;;5049164;28;20025;-72
2023/06/16 11:11:33;;;;;;;8.23;4.72;;;22.00;99.90;;;;;;5026847;28;20052;-71
2023/06/16 11:14:01;;;;;;;7.78;4.95;;;21.80;99.90;;;;;;5049661;28;20021;-71
2023/06/16 11:16:27;;;;;;;7.40;4.82;;;21.70;99.90;;;;;;5048658;28;20057;-72
2023/06/16 11:18:54;;;;;;;9.13;5.50;;;21.50;99.90;;;;;;5049052;28;20048;-73
2023/06/16 11:21:24;;;;;;;10.25;5.32;;;21.40;99.90;;;;;;5048788;28;20048;-71
2023/06/16 11:23:49;;;;;;;4.57;4.07;;;21.20;99.90;;;;;;5049406;28;20104;-70
2023/06/16 11:26:18;;;;;;;9.50;5.40;;;21.20;99.90;;;;;;5048601;28;20128;-72
2023/06/16 11:28:47;;;;;;;7.60;4.72;;;21.10;99.90;;;;;;5049181;28;20044;-73
2023/06/16 11:31:14;;;;;;;5.90;4.82;;;21.00;99.90;;;;;;5048645;28;20470;-72
2023/06/16 11:33:41;;;;;;;5.35;4.70;;;21.20;99.90;;;;;;5049681;28;20024;-72
2023/06/16 11:36:21;;;;;;;7.75;5.93;;;21.20;99.90;;;;;;5048537;28;20021;-75
2023/06/16 11:38:57;;;;;;;8.57;5.18;;;21.20;99.90;;;;;;5049388;28;20062;-73
2023/06/16 11:41:27;;;;;;;9.68;5.72;;;21.30;99.90;;;;;;5048929;28;20087;-71
2023/06/16 11:43:53;;;;;;;9.00;5.50;;;21.30;99.90;;;;;;5049679;28;20144;-70
2023/06/16 11:46:22;;;;;;;10.65;6.30;;;21.20;99.90;;;;;;5048745;28;20469;-71
2023/06/16 11:48:48;;;;;;;9.48;6.22;;;21.10;99.90;;;;;;5049340;28;20025;-72
2023/06/16 11:51:14;;;;;;;7.85;5.90;;;21.00;99.90;;;;;;5048814;28;20033;-72
2023/06/16 11:53:40;;;;;;;8.80;6.70;;;20.90;99.90;;;;;;5049292;28;20037;-71
2023/06/16 11:56:08;;;;;;;8.02;6.07;;;20.80;99.90;;;;;;5048972;28;20025;-73
2023/06/16 11:58:34;;;;;;;8.20;6.10;;;20.70;99.90;;;;;;5049209;28;20120;-72
2023/06/16 12:01:01;;;;;;;9.73;7.38;;;20.60;99.90;;;;;;5049158;28;20048;-72
2023/06/16 12:03:29;;;;;;;10.70;7.15;;;20.60;99.90;;;;;;5046952;28;20035;-72
2023/06/16 12:05:56;;;;;;;10.13;7.78;;;20.40;99.90;;;;;;5049431;28;20025;-72
2023/06/16 12:08:41;;;;;;;10.40;6.65;;;20.30;99.90;;;;;;5047206;28;20406;-72
2023/06/16 12:11:13;;;;;;;8.10;7.10;;;20.20;99.90;;;;;;5048927;28;20021;-73
2023/06/16 12:13:39;;;;;;;10.32;7.07;;;20.20;99.90;;;;;;5049830;28;20435;-72
2023/06/16 12:16:07;;;;;;;11.10;7.72;;;20.10;99.90;;;;;;5048620;28;20308;-72
2023/06/16 12:18:33;;;;;;;10.50;7.50;;;20.10;99.90;;;;;;5049131;28;20103;-72
2023/06/16 12:21:16;;;;;;;9.75;7.70;;;20.10;99.90;;;;;;5048949;28;20447;-72
2023/06/16 12:23:47;;;;;;;11.25;8.25;;;20.00;99.90;;;;;;5049232;28;20029;-72
2023/06/16 12:26:33;;;;;;;11.88;8.45;;;20.00;99.90;;;;;;5048477;28;20149;-72
2023/06/16 12:29:01;;;;;;;15.60;8.45;;;19.90;99.90;;;;;;5048599;28;20040;-72
2023/06/16 12:31:31;;;;;;;11.38;8.30;;;19.90;99.90;;;;;;5051010;28;20065;-72
2023/06/16 12:33:57;;;;;;;11.13;8.10;;;19.90;99.90;;;;;;5053511;28;20029;-73
2023/06/16 12:36:23;;;;;;;8.57;7.68;;;19.80;99.90;;;;;;5052290;28;20147;-73
2023/06/16 12:38:50;;;;;;;11.65;8.68;;;19.90;99.90;;;;;;5053128;28;20057;-73